sensor_id;sensor_type;location;lat;lon;timestamp;temperature;humidity
57390;DHT22;43217;52.694;6.214;2024-02-16T00:01:41;11.30;99.90
57390;DHT22;43217;52.694;6.214;2024-02-16T00:04:06;11.30;99.90
57390;DHT22;43217;52.694;6.214;2024-02-16T00:06:33;11.30;99.90
57390;DHT22;43217;52.694;6.214;2024-02-16T00:08:59;11.30;99.90
57390;DHT22;43217;52.694;6.214;2024-02-16T00:11:25;11.30;99.90
57390;DHT22;43217;52.694;6.214;2024-02-16T00:13:50;11.30;99.90
57390;DHT22;43217;52.694;6.214;2024-02-16T00:16:16;11.30;99.90
57390;DHT22;43217;52.694;6.214;2024-02-16T00:18:43;11.30;99.90
57390;DHT22;43217;52.694;6.214;2024-02-16T00:21:09;11.20;99.90
57390;DHT22;43217;52.694;6.214;2024-02-16T00:23:34;11.30;99.90
57390;DHT22;43217;52.694;6.214;2024-02-16T00:26:02;11.20;99.90
57390;DHT22;43217;52.694;6.214;2024-02-16T00:28:32;11.20;99.90
57390;DHT22;43217;52.694;6.214;2024-02-16T00:30:58;11.20;99.90
57390;DHT22;43217;52.694;6.214;2024-02-16T00:33:23;11.10;99.90
57390;DHT22;43217;52.694;6.214;2024-02-16T00:35:49;11.10;99.90
57390;DHT22;43217;52.694;6.214;2024-02-16T00:38:15;11.10;99.90
57390;DHT22;43217;52.694;6.214;2024-02-16T00:40:40;11.00;99.90
57390;DHT22;43217;52.694;6.214;2024-02-16T00:43:09;11.00;99.90
57390;DHT22;43217;52.694;6.214;2024-02-16T00:45:35;11.00;99.90
57390;DHT22;43217;52.694;6.214;2024-02-16T00:48:00;11.00;99.90
57390;DHT22;43217;52.694;6.214;2024-02-16T00:50:27;11.00;99.90
57390;DHT22;43217;52.694;6.214;2024-02-16T00:52:53;11.00;99.90
57390;DHT22;43217;52.694;6.214;2024-02-16T00:55:18;11.00;99.90
57390;DHT22;43217;52.694;6.214;2024-02-16T00:57:44;11.00;99.90
57390;DHT22;43217;52.694;6.214;2024-02-16T01:00:10;11.00;99.90
57390;DHT22;43217;52.694;6.214;2024-02-16T01:02:36;10.90;99.90
57390;DHT22;43217;52.694;6.214;2024-02-16T01:05:02;10.90;99.90
57390;DHT22;43217;52.694;6.214;2024-02-16T01:07:28;10.90;99.90
57390;DHT22;43217;52.694;6.214;2024-02-16T01:09:54;10.90;99.90
57390;DHT22;43217;52.694;6.214;2024-02-16T01:12:22;10.90;99.90
57390;DHT22;43217;52.694;6.214;2024-02-16T01:14:48;10.90;99.90
57390;DHT22;43217;52.694;6.214;2024-02-16T01:17:13;10.90;99.90
57390;DHT22;43217;52.694;6.214;2024-02-16T01:19:39;10.90;99.90
57390;DHT22;43217;52.694;6.214;2024-02-16T01:22:05;10.90;99.90
57390;DHT22;43217;52.694;6.214;2024-02-16T01:24:31;10.90;99.90
57390;DHT22;43217;52.694;6.214;2024-02-16T01:26:57;10.90;99.90
57390;DHT22;43217;52.694;6.214;2024-02-16T01:29:23;10.90;99.90
57390;DHT22;43217;52.694;6.214;2024-02-16T01:31:49;10.90;99.90
57390;DHT22;43217;52.694;6.214;2024-02-16T01:34:14;10.80;99.90
57390;DHT22;43217;52.694;6.214;2024-02-16T01:36:40;10.80;99.90
57390;DHT22;43217;52.694;6.214;2024-02-16T01:39:06;10.80;99.90
57390;DHT22;43217;52.694;6.214;2024-02-16T01:41:33;10.80;99.90
57390;DHT22;43217;52.694;6.214;2024-02-16T01:43:58;10.80;99.90
57390;DHT22;43217;52.694;6.214;2024-02-16T01:46:24;10.80;99.90
57390;DHT22;43217;52.694;6.214;2024-02-16T01:48:52;10.80;99.90
57390;DHT22;43217;52.694;6.214;2024-02-16T01:51:18;10.80;99.90
57390;DHT22;43217;52.694;6.214;2024-02-16T01:53:44;10.90;99.90
57390;DHT22;43217;52.694;6.214;2024-02-16T01:56:11;10.90;99.90
57390;DHT22;43217;52.694;6.214;2024-02-16T01:58:36;10.90;99.90
57390;DHT22;43217;52.694;6.214;2024-02-16T02:01:03;10.90;99.90
57390;DHT22;43217;52.694;6.214;2024-02-16T02:03:29;10.90;99.90
57390;DHT22;43217;52.694;6.214;2024-02-16T02:05:55;10.90;99.90
57390;DHT22;43217;52.694;6.214;2024-02-16T02:08:21;10.90;99.90
57390;DHT22;43217;52.694;6.214;2024-02-16T02:10:47;10.90;99.90
57390;DHT22;43217;52.694;6.214;2024-02-16T02:13:12;10.90;99.90
57390;DHT22;43217;52.694;6.214;2024-02-16T02:15:38;10.90;99.90
57390;DHT22;43217;52.694;6.214;2024-02-16T02:18:04;10.80;99.90
57390;DHT22;43217;52.694;6.214;2024-02-16T02:20:29;10.80;99.90
57390;DHT22;43217;52.694;6.214;2024-02-16T02:22:55;10.80;99.90
57390;DHT22;43217;52.694;6.214;2024-02-16T02:25:20;10.80;99.90
57390;DHT22;43217;52.694;6.214;2024-02-16T02:27:46;10.80;99.90
57390;DHT22;43217;52.694;6.214;2024-02-16T02:30:12;10.80;99.90
57390;DHT22;43217;52.694;6.214;2024-02-16T02:32:38;10.80;99.90
57390;DHT22;43217;52.694;6.214;2024-02-16T02:35:05;10.70;99.90
57390;DHT22;43217;52.694;6.214;2024-02-16T02:37:30;10.70;99.90
57390;DHT22;43217;52.694;6.214;2024-02-16T02:39:56;10.70;99.90
57390;DHT22;43217;52.694;6.214;2024-02-16T02:42:22;10.70;99.90
57390;DHT22;43217;52.694;6.214;2024-02-16T02:44:47;10.70;99.90
57390;DHT22;43217;52.694;6.214;2024-02-16T02:47:16;10.60;99.90
57390;DHT22;43217;52.694;6.214;2024-02-16T02:49:43;10.70;99.90
57390;DHT22;43217;52.694;6.214;2024-02-16T02:52:08;10.60;99.90
57390;DHT22;43217;52.694;6.214;2024-02-16T02:54:34;10.60;99.90
57390;DHT22;43217;52.694;6.214;2024-02-16T02:57:01;10.70;99.90
57390;DHT22;43217;52.694;6.214;2024-02-16T02:59:27;10.60;99.90
57390;DHT22;43217;52.694;6.214;2024-02-16T03:01:53;10.60;99.90
57390;DHT22;43217;52.694;6.214;2024-02-16T03:04:18;10.60;99.90
57390;DHT22;43217;52.694;6.214;2024-02-16T03:06:44;10.60;99.90
57390;DHT22;43217;52.694;6.214;2024-02-16T03:09:11;10.60;99.90
57390;DHT22;43217;52.694;6.214;2024-02-16T03:11:38;10.60;99.90
57390;DHT22;43217;52.694;6.214;2024-02-16T03:14:03;10.60;99.90
57390;DHT22;43217;52.694;6.214;2024-02-16T03:16:31;10.60;99.90
57390;DHT22;43217;52.694;6.214;2024-02-16T03:18:56;10.50;99.90
57390;DHT22;43217;52.694;6.214;2024-02-16T03:21:22;10.60;99.90
57390;DHT22;43217;52.694;6.214;2024-02-16T03:23:48;10.50;99.90
57390;DHT22;43217;52.694;6.214;2024-02-16T03:26:18;10.50;99.90
57390;DHT22;43217;52.694;6.214;2024-02-16T03:28:47;10.50;99.90
57390;DHT22;43217;52.694;6.214;2024-02-16T03:31:21;10.50;99.90
57390;DHT22;43217;52.694;6.214;2024-02-16T03:33:48;10.50;99.90
57390;DHT22;43217;52.694;6.214;2024-02-16T03:36:14;10.50;99.90
57390;DHT22;43217;52.694;6.214;2024-02-16T03:38:47;10.60;99.90
57390;DHT22;43217;52.694;6.214;2024-02-16T03:41:18;10.60;99.90
57390;DHT22;43217;52.694;6.214;2024-02-16T03:43:44;10.60;99.90
57390;DHT22;43217;52.694;6.214;2024-02-16T03:46:10;10.60;99.90
57390;DHT22;43217;52.694;6.214;2024-02-16T03:48:36;10.60;99.90
57390;DHT22;43217;52.694;6.214;2024-02-16T03:51:02;10.60;99.90
57390;DHT22;43217;52.694;6.214;2024-02-16T03:53:30;10.60;99.90
57390;DHT22;43217;52.694;6.214;2024-02-16T03:55:56;10.60;99.90
57390;DHT22;43217;52.694;6.214;2024-02-16T03:58:22;10.60;99.90
57390;DHT22;43217;52.694;6.214;2024-02-16T04:00:48;10.70;99.90
57390;DHT22;43217;52.694;6.214;2024-02-16T04:03:18;10.60;99.90
57390;DHT22;43217;52.694;6.214;2024-02-16T04:05:44;10.50;99.90
57390;DHT22;43217;52.694;6.214;2024-02-16T04:08:10;10.60;99.90
57390;DHT22;43217;52.694;6.214;2024-02-16T04:10:36;10.60;99.90
57390;DHT22;43217;52.694;6.214;2024-02-16T04:13:04;10.60;99.90
57390;DHT22;43217;52.694;6.214;2024-02-16T04:15:30;10.60;99.90
57390;DHT22;43217;52.694;6.214;2024-02-16T04:17:56;10.50;99.90
57390;DHT22;43217;52.694;6.214;2024-02-16T04:20:22;10.50;99.90
57390;DHT22;43217;52.694;6.214;2024-02-16T04:22:48;10.50;99.90
57390;DHT22;43217;52.694;6.214;2024-02-16T04:25:13;10.50;99.90
57390;DHT22;43217;52.694;6.214;2024-02-16T04:27:39;10.60;99.90
57390;DHT22;43217;52.694;6.214;2024-02-16T04:30:05;10.60;99.90
57390;DHT22;43217;52.694;6.214;2024-02-16T04:32:32;10.60;99.90
57390;DHT22;43217;52.694;6.214;2024-02-16T04:34:58;10.50;99.90
57390;DHT22;43217;52.694;6.214;2024-02-16T04:37:27;10.50;99.90
57390;DHT22;43217;52.694;6.214;2024-02-16T04:39:52;10.50;99.90
57390;DHT22;43217;52.694;6.214;2024-02-16T04:42:18;10.40;99.90
57390;DHT22;43217;52.694;6.214;2024-02-16T04:44:44;10.40;99.90
57390;DHT22;43217;52.694;6.214;2024-02-16T04:47:09;10.40;99.90
57390;DHT22;43217;52.694;6.214;2024-02-16T04:49:35;10.40;99.90
57390;DHT22;43217;52.694;6.214;2024-02-16T04:52:02;10.50;99.90
57390;DHT22;43217;52.694;6.214;2024-02-16T04:54:30;10.50;99.90
57390;DHT22;43217;52.694;6.214;2024-02-16T04:56:56;10.50;99.90
57390;DHT22;43217;52.694;6.214;2024-02-16T04:59:22;10.50;99.90
57390;DHT22;43217;52.694;6.214;2024-02-16T05:01:47;10.50;99.90
57390;DHT22;43217;52.694;6.214;2024-02-16T05:04:13;10.50;99.90
57390;DHT22;43217;52.694;6.214;2024-02-16T05:06:43;10.50;99.90
57390;DHT22;43217;52.694;6.214;2024-02-16T05:09:09;10.50;99.90
57390;DHT22;43217;52.694;6.214;2024-02-16T05:11:34;10.60;99.90
57390;DHT22;43217;52.694;6.214;2024-02-16T05:14:00;10.60;99.90
57390;DHT22;43217;52.694;6.214;2024-02-16T05:16:27;10.60;99.90
57390;DHT22;43217;52.694;6.214;2024-02-16T05:18:53;10.60;99.90
57390;DHT22;43217;52.694;6.214;2024-02-16T05:21:18;10.70;99.90
57390;DHT22;43217;52.694;6.214;2024-02-16T05:23:44;10.70;99.90
57390;DHT22;43217;52.694;6.214;2024-02-16T05:26:09;10.70;99.90
57390;DHT22;43217;52.694;6.214;2024-02-16T05:28:35;10.70;99.90
57390;DHT22;43217;52.694;6.214;2024-02-16T05:31:20;10.70;99.90
57390;DHT22;43217;52.694;6.214;2024-02-16T05:33:50;10.80;99.90
57390;DHT22;43217;52.694;6.214;2024-02-16T05:36:25;10.80;99.90
57390;DHT22;43217;52.694;6.214;2024-02-16T05:38:53;10.80;99.90
57390;DHT22;43217;52.694;6.214;2024-02-16T05:41:21;10.80;99.90
57390;DHT22;43217;52.694;6.214;2024-02-16T05:43:47;10.80;99.90
57390;DHT22;43217;52.694;6.214;2024-02-16T05:46:14;10.80;99.90
57390;DHT22;43217;52.694;6.214;2024-02-16T05:48:40;10.80;99.90
57390;DHT22;43217;52.694;6.214;2024-02-16T05:51:06;10.80;99.90
57390;DHT22;43217;52.694;6.214;2024-02-16T05:53:32;10.80;99.90
57390;DHT22;43217;52.694;6.214;2024-02-16T05:55:59;10.80;99.90
57390;DHT22;43217;52.694;6.214;2024-02-16T05:58:25;10.80;99.90
57390;DHT22;43217;52.694;6.214;2024-02-16T06:00:50;10.80;99.90
57390;DHT22;43217;52.694;6.214;2024-02-16T06:03:16;10.70;99.90
57390;DHT22;43217;52.694;6.214;2024-02-16T06:05:42;10.70;99.90
57390;DHT22;43217;52.694;6.214;2024-02-16T06:08:13;10.70;99.90
57390;DHT22;43217;52.694;6.214;2024-02-16T06:10:39;10.70;99.90
57390;DHT22;43217;52.694;6.214;2024-02-16T06:13:05;10.60;99.90
57390;DHT22;43217;52.694;6.214;2024-02-16T06:15:31;10.70;99.90
57390;DHT22;43217;52.694;6.214;2024-02-16T06:17:59;10.60;99.90
57390;DHT22;43217;52.694;6.214;2024-02-16T06:20:25;10.60;99.90
57390;DHT22;43217;52.694;6.214;2024-02-16T06:22:51;10.50;99.90
57390;DHT22;43217;52.694;6.214;2024-02-16T06:25:16;10.50;99.90
57390;DHT22;43217;52.694;6.214;2024-02-16T06:27:42;10.50;99.90
57390;DHT22;43217;52.694;6.214;2024-02-16T06:30:08;10.50;99.90
57390;DHT22;43217;52.694;6.214;2024-02-16T06:32:40;10.40;99.90
57390;DHT22;43217;52.694;6.214;2024-02-16T06:35:10;10.40;99.90
57390;DHT22;43217;52.694;6.214;2024-02-16T06:37:36;10.40;99.90
57390;DHT22;43217;52.694;6.214;2024-02-16T06:40:06;10.40;99.90
57390;DHT22;43217;52.694;6.214;2024-02-16T06:42:35;10.40;99.90
57390;DHT22;43217;52.694;6.214;2024-02-16T06:45:01;10.40;99.90
57390;DHT22;43217;52.694;6.214;2024-02-16T06:47:28;10.40;99.90
57390;DHT22;43217;52.694;6.214;2024-02-16T06:49:54;10.40;99.90
57390;DHT22;43217;52.694;6.214;2024-02-16T06:52:20;10.40;99.90
57390;DHT22;43217;52.694;6.214;2024-02-16T06:54:46;10.40;99.90
57390;DHT22;43217;52.694;6.214;2024-02-16T06:57:11;10.40;99.90
57390;DHT22;43217;52.694;6.214;2024-02-16T06:59:39;10.40;99.90
57390;DHT22;43217;52.694;6.214;2024-02-16T07:02:05;10.40;99.90
57390;DHT22;43217;52.694;6.214;2024-02-16T07:04:33;10.40;99.90
57390;DHT22;43217;52.694;6.214;2024-02-16T07:06:59;10.40;99.90
57390;DHT22;43217;52.694;6.214;2024-02-16T07:09:24;10.40;99.90
57390;DHT22;43217;52.694;6.214;2024-02-16T07:11:50;10.40;99.90
57390;DHT22;43217;52.694;6.214;2024-02-16T07:14:16;10.50;99.90
57390;DHT22;43217;52.694;6.214;2024-02-16T07:16:42;10.50;99.90
57390;DHT22;43217;52.694;6.214;2024-02-16T07:19:08;10.40;99.90
57390;DHT22;43217;52.694;6.214;2024-02-16T07:21:34;10.40;99.90
57390;DHT22;43217;52.694;6.214;2024-02-16T07:23:59;10.40;99.90
57390;DHT22;43217;52.694;6.214;2024-02-16T07:26:25;10.50;99.90
57390;DHT22;43217;52.694;6.214;2024-02-16T07:28:51;10.50;99.90
57390;DHT22;43217;52.694;6.214;2024-02-16T07:31:16;10.50;99.90
57390;DHT22;43217;52.694;6.214;2024-02-16T07:33:42;10.50;99.90
57390;DHT22;43217;52.694;6.214;2024-02-16T07:36:08;10.50;99.90
57390;DHT22;43217;52.694;6.214;2024-02-16T07:38:36;10.50;99.90
57390;DHT22;43217;52.694;6.214;2024-02-16T07:41:02;10.50;99.90
57390;DHT22;43217;52.694;6.214;2024-02-16T07:43:28;10.60;99.90
57390;DHT22;43217;52.694;6.214;2024-02-16T07:45:53;10.60;99.90
57390;DHT22;43217;52.694;6.214;2024-02-16T07:48:22;10.70;99.90
57390;DHT22;43217;52.694;6.214;2024-02-16T07:50:48;10.70;99.90
57390;DHT22;43217;52.694;6.214;2024-02-16T07:53:17;10.80;99.90
57390;DHT22;43217;52.694;6.214;2024-02-16T07:55:46;10.80;99.90
57390;DHT22;43217;52.694;6.214;2024-02-16T07:58:12;10.80;99.90
57390;DHT22;43217;52.694;6.214;2024-02-16T08:00:38;10.90;99.90
57390;DHT22;43217;52.694;6.214;2024-02-16T08:03:03;10.90;99.90
57390;DHT22;43217;52.694;6.214;2024-02-16T08:05:29;10.90;99.90
57390;DHT22;43217;52.694;6.214;2024-02-16T08:07:55;10.90;99.90
57390;DHT22;43217;52.694;6.214;2024-02-16T08:10:21;10.90;99.90
57390;DHT22;43217;52.694;6.214;2024-02-16T08:12:47;11.00;99.90
57390;DHT22;43217;52.694;6.214;2024-02-16T08:15:13;11.00;99.90
57390;DHT22;43217;52.694;6.214;2024-02-16T08:17:40;11.00;99.90
57390;DHT22;43217;52.694;6.214;2024-02-16T08:20:06;11.00;99.90
57390;DHT22;43217;52.694;6.214;2024-02-16T08:22:32;11.00;99.90
57390;DHT22;43217;52.694;6.214;2024-02-16T08:24:59;11.10;99.90
57390;DHT22;43217;52.694;6.214;2024-02-16T08:27:25;11.10;99.90
57390;DHT22;43217;52.694;6.214;2024-02-16T08:29:51;11.10;99.90
57390;DHT22;43217;52.694;6.214;2024-02-16T08:32:19;11.20;99.90
57390;DHT22;43217;52.694;6.214;2024-02-16T08:34:46;11.20;99.90
57390;DHT22;43217;52.694;6.214;2024-02-16T08:37:13;11.20;99.90
57390;DHT22;43217;52.694;6.214;2024-02-16T08:39:39;11.30;99.90
57390;DHT22;43217;52.694;6.214;2024-02-16T08:42:05;11.30;99.90
57390;DHT22;43217;52.694;6.214;2024-02-16T08:44:30;11.30;99.90
57390;DHT22;43217;52.694;6.214;2024-02-16T08:46:56;11.40;99.90
57390;DHT22;43217;52.694;6.214;2024-02-16T08:49:22;11.40;99.90
57390;DHT22;43217;52.694;6.214;2024-02-16T08:51:47;11.40;99.90
57390;DHT22;43217;52.694;6.214;2024-02-16T08:54:13;11.40;99.90
57390;DHT22;43217;52.694;6.214;2024-02-16T08:56:39;11.50;99.90
57390;DHT22;43217;52.694;6.214;2024-02-16T08:59:05;11.50;99.90
57390;DHT22;43217;52.694;6.214;2024-02-16T09:01:35;11.50;99.90
57390;DHT22;43217;52.694;6.214;2024-02-16T09:04:01;11.60;99.90
57390;DHT22;43217;52.694;6.214;2024-02-16T09:06:27;11.60;99.90
57390;DHT22;43217;52.694;6.214;2024-02-16T09:08:53;11.60;99.90
57390;DHT22;43217;52.694;6.214;2024-02-16T09:11:19;11.70;99.90
57390;DHT22;43217;52.694;6.214;2024-02-16T09:13:45;11.80;99.90
57390;DHT22;43217;52.694;6.214;2024-02-16T09:16:10;11.80;99.90
57390;DHT22;43217;52.694;6.214;2024-02-16T09:18:36;12.00;99.90
57390;DHT22;43217;52.694;6.214;2024-02-16T09:21:05;12.00;99.90
57390;DHT22;43217;52.694;6.214;2024-02-16T09:23:32;12.10;99.90
57390;DHT22;43217;52.694;6.214;2024-02-16T09:25:58;12.20;99.90
57390;DHT22;43217;52.694;6.214;2024-02-16T09:28:25;12.30;99.90
57390;DHT22;43217;52.694;6.214;2024-02-16T09:30:50;12.30;99.90
57390;DHT22;43217;52.694;6.214;2024-02-16T09:33:16;12.40;99.90
57390;DHT22;43217;52.694;6.214;2024-02-16T09:35:41;12.40;99.90
57390;DHT22;43217;52.694;6.214;2024-02-16T09:38:07;12.50;99.90
57390;DHT22;43217;52.694;6.214;2024-02-16T09:40:35;12.50;99.90
57390;DHT22;43217;52.694;6.214;2024-02-16T09:43:01;12.50;99.90
57390;DHT22;43217;52.694;6.214;2024-02-16T09:45:28;12.60;99.90
57390;DHT22;43217;52.694;6.214;2024-02-16T09:47:54;12.70;99.90
57390;DHT22;43217;52.694;6.214;2024-02-16T09:50:21;12.70;99.90
57390;DHT22;43217;52.694;6.214;2024-02-16T09:52:48;12.90;99.90
57390;DHT22;43217;52.694;6.214;2024-02-16T09:55:15;12.90;99.90
57390;DHT22;43217;52.694;6.214;2024-02-16T09:57:41;13.00;99.90
57390;DHT22;43217;52.694;6.214;2024-02-16T10:00:07;12.90;99.90
57390;DHT22;43217;52.694;6.214;2024-02-16T10:02:44;13.00;99.90
57390;DHT22;43217;52.694;6.214;2024-02-16T10:05:18;13.00;99.90
57390;DHT22;43217;52.694;6.214;2024-02-16T10:07:44;13.10;99.90
57390;DHT22;43217;52.694;6.214;2024-02-16T10:10:29;13.10;99.90
57390;DHT22;43217;52.694;6.214;2024-02-16T10:13:07;13.20;99.90
57390;DHT22;43217;52.694;6.214;2024-02-16T10:15:34;13.20;99.90
57390;DHT22;43217;52.694;6.214;2024-02-16T10:18:04;13.20;99.90
57390;DHT22;43217;52.694;6.214;2024-02-16T10:20:32;13.20;99.90
57390;DHT22;43217;52.694;6.214;2024-02-16T10:25:36;13.30;99.90
57390;DHT22;43217;52.694;6.214;2024-02-16T10:28:08;13.20;99.90
57390;DHT22;43217;52.694;6.214;2024-02-16T10:30:38;13.20;99.90
57390;DHT22;43217;52.694;6.214;2024-02-16T10:33:07;13.10;99.90
57390;DHT22;43217;52.694;6.214;2024-02-16T10:35:36;13.10;99.90
57390;DHT22;43217;52.694;6.214;2024-02-16T10:38:04;13.00;99.90
57390;DHT22;43217;52.694;6.214;2024-02-16T10:40:38;12.90;99.90
57390;DHT22;43217;52.694;6.214;2024-02-16T10:43:04;12.90;99.90
57390;DHT22;43217;52.694;6.214;2024-02-16T10:45:38;12.90;99.90
57390;DHT22;43217;52.694;6.214;2024-02-16T10:48:05;12.80;99.90
57390;DHT22;43217;52.694;6.214;2024-02-16T10:50:35;12.70;99.90
57390;DHT22;43217;52.694;6.214;2024-02-16T10:53:16;12.70;99.90
57390;DHT22;43217;52.694;6.214;2024-02-16T10:55:43;12.70;99.90
57390;DHT22;43217;52.694;6.214;2024-02-16T10:58:11;12.60;99.90
57390;DHT22;43217;52.694;6.214;2024-02-16T11:00:51;12.60;99.90
57390;DHT22;43217;52.694;6.214;2024-02-16T11:03:18;12.60;99.90
57390;DHT22;43217;52.694;6.214;2024-02-16T11:05:46;12.50;99.90
57390;DHT22;43217;52.694;6.214;2024-02-16T11:08:15;12.50;99.90
57390;DHT22;43217;52.694;6.214;2024-02-16T11:10:40;12.50;99.90
57390;DHT22;43217;52.694;6.214;2024-02-16T11:13:06;12.40;99.90
57390;DHT22;43217;52.694;6.214;2024-02-16T11:15:34;12.40;99.90
57390;DHT22;43217;52.694;6.214;2024-02-16T11:18:01;12.40;99.90
57390;DHT22;43217;52.694;6.214;2024-02-16T11:20:27;12.30;99.90
57390;DHT22;43217;52.694;6.214;2024-02-16T11:22:53;12.30;99.90
57390;DHT22;43217;52.694;6.214;2024-02-16T11:25:19;12.30;99.90
57390;DHT22;43217;52.694;6.214;2024-02-16T11:27:47;12.20;99.90
57390;DHT22;43217;52.694;6.214;2024-02-16T11:30:13;12.20;99.90
57390;DHT22;43217;52.694;6.214;2024-02-16T11:32:38;12.10;99.90
57390;DHT22;43217;52.694;6.214;2024-02-16T11:35:08;12.10;99.90
57390;DHT22;43217;52.694;6.214;2024-02-16T11:37:34;12.00;99.90
57390;DHT22;43217;52.694;6.214;2024-02-16T11:40:00;11.90;99.90
57390;DHT22;43217;52.694;6.214;2024-02-16T11:42:28;11.90;99.90
57390;DHT22;43217;52.694;6.214;2024-02-16T11:44:54;11.80;99.90
57390;DHT22;43217;52.694;6.214;2024-02-16T11:47:25;11.80;99.90
57390;DHT22;43217;52.694;6.214;2024-02-16T11:50:01;11.80;99.90
57390;DHT22;43217;52.694;6.214;2024-02-16T11:52:27;11.80;99.90
57390;DHT22;43217;52.694;6.214;2024-02-16T11:54:53;11.70;99.90
57390;DHT22;43217;52.694;6.214;2024-02-16T11:57:19;11.70;99.90
57390;DHT22;43217;52.694;6.214;2024-02-16T11:59:48;11.70;99.90
57390;DHT22;43217;52.694;6.214;2024-02-16T12:02:18;11.60;99.90
57390;DHT22;43217;52.694;6.214;2024-02-16T12:04:47;11.60;99.90
57390;DHT22;43217;52.694;6.214;2024-02-16T12:07:13;11.60;99.90
57390;DHT22;43217;52.694;6.214;2024-02-16T12:09:40;11.60;99.90
57390;DHT22;43217;52.694;6.214;2024-02-16T12:12:06;11.60;99.90
57390;DHT22;43217;52.694;6.214;2024-02-16T12:14:31;11.50;99.90
57390;DHT22;43217;52.694;6.214;2024-02-16T12:16:58;11.50;99.90
57390;DHT22;43217;52.694;6.214;2024-02-16T12:19:24;11.50;99.90
57390;DHT22;43217;52.694;6.214;2024-02-16T12:21:55;11.50;99.90
57390;DHT22;43217;52.694;6.214;2024-02-16T12:24:24;11.50;99.90
57390;DHT22;43217;52.694;6.214;2024-02-16T12:26:50;11.50;99.90
57390;DHT22;43217;52.694;6.214;2024-02-16T12:29:16;11.60;99.90
57390;DHT22;43217;52.694;6.214;2024-02-16T12:31:45;11.60;99.90
57390;DHT22;43217;52.694;6.214;2024-02-16T12:34:13;11.60;99.90
57390;DHT22;43217;52.694;6.214;2024-02-16T12:36:39;11.60;99.90
57390;DHT22;43217;52.694;6.214;2024-02-16T12:39:08;11.60;99.90
57390;DHT22;43217;52.694;6.214;2024-02-16T12:41:37;11.60;99.90
57390;DHT22;43217;52.694;6.214;2024-02-16T12:44:04;11.60;99.90
57390;DHT22;43217;52.694;6.214;2024-02-16T12:46:30;11.60;99.90
57390;DHT22;43217;52.694;6.214;2024-02-16T12:48:56;11.60;99.90
57390;DHT22;43217;52.694;6.214;2024-02-16T12:51:21;11.60;99.90
57390;DHT22;43217;52.694;6.214;2024-02-16T12:53:47;11.50;99.90
57390;DHT22;43217;52.694;6.214;2024-02-16T12:56:13;11.50;99.90
57390;DHT22;43217;52.694;6.214;2024-02-16T12:58:39;11.50;99.90
57390;DHT22;43217;52.694;6.214;2024-02-16T13:01:05;11.50;99.90
57390;DHT22;43217;52.694;6.214;2024-02-16T13:03:35;11.50;99.90
57390;DHT22;43217;52.694;6.214;2024-02-16T13:06:01;11.50;99.90
57390;DHT22;43217;52.694;6.214;2024-02-16T13:08:27;11.50;99.90
57390;DHT22;43217;52.694;6.214;2024-02-16T13:10:53;11.50;99.90
57390;DHT22;43217;52.694;6.214;2024-02-16T13:13:19;11.50;99.90
57390;DHT22;43217;52.694;6.214;2024-02-16T13:15:46;11.50;99.90
57390;DHT22;43217;52.694;6.214;2024-02-16T13:18:13;11.50;99.90
57390;DHT22;43217;52.694;6.214;2024-02-16T13:20:39;11.50;99.90
57390;DHT22;43217;52.694;6.214;2024-02-16T13:23:04;11.60;99.90
57390;DHT22;43217;52.694;6.214;2024-02-16T13:25:30;11.60;99.90
57390;DHT22;43217;52.694;6.214;2024-02-16T13:27:55;11.60;99.90
57390;DHT22;43217;52.694;6.214;2024-02-16T13:30:21;11.60;99.90
57390;DHT22;43217;52.694;6.214;2024-02-16T13:32:47;11.70;99.90
57390;DHT22;43217;52.694;6.214;2024-02-16T13:35:12;11.70;99.90
57390;DHT22;43217;52.694;6.214;2024-02-16T13:37:39;11.70;99.90
57390;DHT22;43217;52.694;6.214;2024-02-16T13:40:07;11.70;99.90
57390;DHT22;43217;52.694;6.214;2024-02-16T13:42:39;11.70;99.90
57390;DHT22;43217;52.694;6.214;2024-02-16T13:45:05;11.70;99.90
57390;DHT22;43217;52.694;6.214;2024-02-16T13:47:30;11.70;99.90
57390;DHT22;43217;52.694;6.214;2024-02-16T13:49:56;11.60;99.90
57390;DHT22;43217;52.694;6.214;2024-02-16T13:52:23;11.60;99.90
57390;DHT22;43217;52.694;6.214;2024-02-16T13:54:49;11.60;99.90
57390;DHT22;43217;52.694;6.214;2024-02-16T13:57:15;11.60;99.90
57390;DHT22;43217;52.694;6.214;2024-02-16T13:59:42;11.60;99.90
57390;DHT22;43217;52.694;6.214;2024-02-16T14:02:07;11.60;99.90
57390;DHT22;43217;52.694;6.214;2024-02-16T14:04:33;11.60;99.90
57390;DHT22;43217;52.694;6.214;2024-02-16T14:06:59;11.60;99.90
57390;DHT22;43217;52.694;6.214;2024-02-16T14:09:25;11.60;99.90
57390;DHT22;43217;52.694;6.214;2024-02-16T14:11:52;11.60;99.90
57390;DHT22;43217;52.694;6.214;2024-02-16T14:14:19;11.60;99.90
57390;DHT22;43217;52.694;6.214;2024-02-16T14:16:45;11.60;99.90
57390;DHT22;43217;52.694;6.214;2024-02-16T14:19:10;11.60;99.90
57390;DHT22;43217;52.694;6.214;2024-02-16T14:21:36;11.60;99.90
57390;DHT22;43217;52.694;6.214;2024-02-16T14:24:02;11.70;99.90
57390;DHT22;43217;52.694;6.214;2024-02-16T14:26:27;11.70;99.90
57390;DHT22;43217;52.694;6.214;2024-02-16T14:28:53;11.70;99.90
57390;DHT22;43217;52.694;6.214;2024-02-16T14:31:20;11.70;99.90
57390;DHT22;43217;52.694;6.214;2024-02-16T14:33:48;11.70;99.90
57390;DHT22;43217;52.694;6.214;2024-02-16T14:36:14;11.60;99.90
57390;DHT22;43217;52.694;6.214;2024-02-16T14:38:39;11.60;99.90
57390;DHT22;43217;52.694;6.214;2024-02-16T14:41:07;11.60;99.90
57390;DHT22;43217;52.694;6.214;2024-02-16T14:43:33;11.60;99.90
57390;DHT22;43217;52.694;6.214;2024-02-16T14:46:00;11.60;99.90
57390;DHT22;43217;52.694;6.214;2024-02-16T14:48:26;11.50;99.90
57390;DHT22;43217;52.694;6.214;2024-02-16T14:50:52;11.50;99.90
57390;DHT22;43217;52.694;6.214;2024-02-16T14:53:21;11.50;99.90
57390;DHT22;43217;52.694;6.214;2024-02-16T14:55:48;11.50;99.90
57390;DHT22;43217;52.694;6.214;2024-02-16T14:58:16;11.50;99.90
57390;DHT22;43217;52.694;6.214;2024-02-16T15:00:41;11.50;99.90
57390;DHT22;43217;52.694;6.214;2024-02-16T15:03:11;11.50;99.90
57390;DHT22;43217;52.694;6.214;2024-02-16T15:05:37;11.40;99.90
57390;DHT22;43217;52.694;6.214;2024-02-16T15:08:03;11.40;99.90
57390;DHT22;43217;52.694;6.214;2024-02-16T15:10:29;11.40;99.90
57390;DHT22;43217;52.694;6.214;2024-02-16T15:12:55;11.40;99.90
57390;DHT22;43217;52.694;6.214;2024-02-16T15:15:20;11.40;99.90
57390;DHT22;43217;52.694;6.214;2024-02-16T15:17:46;11.40;99.90
57390;DHT22;43217;52.694;6.214;2024-02-16T15:20:14;11.40;99.90
57390;DHT22;43217;52.694;6.214;2024-02-16T15:22:39;11.30;99.90
57390;DHT22;43217;52.694;6.214;2024-02-16T15:25:07;11.30;99.90
57390;DHT22;43217;52.694;6.214;2024-02-16T15:27:33;11.30;99.90
57390;DHT22;43217;52.694;6.214;2024-02-16T15:29:59;11.30;99.90